Station: East Point  

  Atmospheric Gas Attenuation - ITU Rec 676-11   ----------------- dB/100km -----------------
Date Time Temp RH % AH g/m3 Dew Point Wind Direction Speed kph Gust kph Barometer mB Rainfall Since 9am 24GHz 47GHz 76GHz 122GHz 134GHz 241GHz
08/05 12:00 29.1 45 13 16 17 28 1011.9 0 28.0 28.1 48.4 127.6 131.9 457.7
08/05 11:50 29.3 45 13.14 16.4 11 22 1012.1 0 28.3 28.3 48.8 128.7 133.3 462.6
08/05 11:40 28.7 46 13 16.2 11 15 1012.1 0 28.0 28.3 48.6 128.3 132.6 460.0
08/05 11:30 28.4 47 13.07 16.3 11 19 1012.3 0 28.2 28.5 49.1 129.5 134.0 464.9
08/05 11:20 28.5 49 13.7 17 11 17 1012.5 0 29.5 29.4 51.5 135.8 141.8 492.1
08/05 11:10 28.1 47 12.85 16 9 15 1012.6 0 27.8 28.2 48.5 127.8 131.8 457.1
08/05 11:00 28.1 50 13.67 16.7 11 20 1012.8 0 29.5 29.5 51.6 136.2 142.2 493.4
08/05 10:50 27.4 48 12.63 15.7 11 17 1012.9 0 27.3 28.1 48.1 126.7 130.3 451.6
08/05 10:40 27.7 49 13.11 16 11 15 1012.9 0 28.3 28.8 49.7 131.1 135.8 471.0
08/05 10:30 27.3 48 12.56 15.3 11 24 1012.9 0 27.2 28.1 47.8 126.1 129.6 449.1
08/05 10:20 26.8 47 11.96 14.8 13 19 1012.9 0 26.0 27.3 45.9 120.8 122.9 425.8
08/05 10:10 26.5 49 12.27 14.9 19 22 1013 0 26.6 27.9 47.2 124.4 127.2 441.0
08/05 10:00 26.3 51 12.63 15.4 15 26 1013.1 0 27.4 28.5 48.7 128.5 132.1 458.0
08/05 09:50 26 49 11.93 14.7 13 19 1013.1 0 26.0 27.5 46.2 121.8 123.8 428.8
08/05 09:40 25.9 49 11.86 14.6 11 15 1013.1 0 25.8 27.4 46.0 121.2 123.1 426.3
08/05 09:30 25.3 50 11.71 14.1 17 30 1013.1 0 25.5 27.4 45.8 120.6 122.1 423.0
08/05 09:20 25.2 50 11.64 14.3 15 22 1013 0 25.4 27.3 45.6 120.0 121.4 420.4
08/05 09:10 25 51 11.74 14.4 17 20 1013 0 25.6 27.5 46.1 121.3 123.0 425.9
08/05 09:00 25 55 12.66 15.3 11 20 1012.9 0 27.6 29.0 49.6 130.9 134.7 466.9
08/05 08:50 24.7 54 12.22 15 7 11 1012.9 0 26.7 28.3 48.1 126.8 129.5 448.8
08/05 08:40 24.2 55 12.1 14.8 11 17 1012.8 0 26.4 28.3 47.9 126.3 128.8 446.2
08/05 08:30 24.3 57 12.61 15.2 13 28 1012.8 0 27.5 29.1 49.9 131.5 135.3 468.7
08/05 08:20 24.1 56 12.25 15 11 20 1012.8 0 26.8 28.6 48.6 128.0 130.9 453.5
08/05 08:10 23.7 57 12.19 14.9 13 17 1012.7 0 26.7 28.6 48.6 128.0 130.8 453.1
08/05 08:00 23.5 57 12.05 14.5 15 26 1012.6 0 26.4 28.5 48.1 126.9 129.3 447.8
08/05 07:50 23.4 57 11.99 14.6 15 24 1012.5 0 26.3 28.4 48.0 126.4 128.7 445.7
08/05 07:40 23.1 58 11.99 14.6 13 20 1012.5 0 26.3 28.5 48.1 126.9 129.2 447.4
08/05 07:30 22.7 60 12.12 14.5 15 30 1012.4 0 26.6 28.8 48.9 128.9 131.5 455.6
08/05 07:20 22.7 58 11.72 14.2 13 19 1012.2 0 25.7 28.2 47.3 124.6 126.3 437.2
08/05 07:10 22.6 58 11.65 14.1 19 26 1012.1 0 25.6 28.1 47.1 124.0 125.5 434.6
08/05 07:00 22.6 60 12.05 14.4 15 24 1012 0 26.4 28.7 48.7 128.2 130.8 452.8
08/05 06:50 22.4 61 12.11 14.5 13 19 1011.9 0 26.6 28.9 49.0 129.2 131.9 456.7
08/05 06:40 22.3 59 11.65 14.1 11 19 1011.9 0 25.6 28.2 47.2 124.5 126.0 436.2
08/05 06:30 22.3 61 12.04 14.4 11 20 1011.8 0 26.4 28.8 48.8 128.6 131.1 454.0
08/05 06:20 22.3 61 12.04 14.4 9 15 1011.7 0 26.4 28.8 48.8 128.6 131.1 453.9
08/05 06:10 22.3 61 12.04 14.4 13 20 1011.8 0 26.4 28.8 48.8 128.6 131.1 454.0
08/05 06:00 22.3 60 11.85 14.2 13 20 1011.7 0 26.0 28.5 48.0 126.6 128.6 445.2
08/05 05:50 22.3 59 11.65 13.9 13 20 1011.5 0 25.6 28.2 47.2 124.4 126.0 436.0
08/05 05:40 22.3 61 12.04 14.4 11 13 1011.6 0 26.4 28.8 48.8 128.6 131.1 453.9
08/05 05:30 22.3 61 12.04 14.4 11 20 1011.5 0 26.4 28.8 48.8 128.6 131.1 453.9
08/05 05:20 22.4 59 11.72 14.2 7 11 1011.5 0 25.8 28.2 47.4 125.0 126.7 438.7
08/05 05:10 22.6 58 11.65 13.9 13 20 1011.5 0 25.6 28.1 47.1 123.9 125.5 434.4
08/05 05:00 22.6 58 11.65 13.9 13 26 1011.4 0 25.6 28.1 47.0 123.9 125.5 434.3
08/05 04:50 22.7 58 11.72 14 15 19 1011.5 0 25.7 28.1 47.3 124.5 126.2 437.0
08/05 04:40 22.9 57 11.65 13.9 9 17 1011.4 0 25.6 28.0 46.9 123.5 125.0 432.7
08/05 04:30 22.9 58 11.85 14.2 13 24 1011.3 0 26.0 28.3 47.7 125.6 127.6 441.7
08/05 04:20 22.7 60 12.12 14.5 11 17 1011.2 0 26.6 28.8 48.8 128.7 131.4 455.1
08/05 04:10 22.6 61 12.25 14.7 9 17 1011.2 0 26.9 29.0 49.4 130.3 133.3 461.7
08/05 04:00 22.7 61 12.32 14.8 9 19 1011.2 0 27.0 29.1 49.6 130.9 134.1 464.3
08/05 03:50 22.9 58 11.85 14.4 9 13 1011.3 0 26.0 28.3 47.7 125.6 127.6 441.7
08/05 03:40 23 58 11.92 14.3 11 17 1011.4 0 26.1 28.4 47.9 126.1 128.3 444.4
08/05 03:30 23 58 11.92 14.3 11 22 1011.4 0 26.1 28.4 47.9 126.1 128.3 444.4
08/05 03:20 23.2 57 11.85 14.2 7 13 1011.5 0 26.0 28.2 47.5 125.1 127.1 440.1
08/05 03:10 23.3 57 11.92 14.3 13 20 1011.4 0 26.1 28.3 47.7 125.7 127.8 442.7
08/05 03:00 23.4 57 11.99 14.4 11 22 1011.4 0 26.3 28.3 47.9 126.2 128.6 445.3
08/05 02:50 23.5 56 11.84 14.2 11 20 1011.6 0 25.9 28.1 47.3 124.5 126.5 438.0
08/05 02:40 23.4 57 11.99 14.4 13 19 1011.7 0 26.3 28.4 47.9 126.3 128.6 445.4
08/05 02:30 23.5 57 12.05 14.5 11 20 1011.8 0 26.4 28.4 48.1 126.8 129.2 447.6
08/05 02:20 23.6 56 11.91 14.5 11 19 1011.8 0 26.1 28.2 47.5 125.1 127.3 440.7
08/05 02:10 23.9 55 11.9 14.3 11 17 1011.9 0 26.0 28.1 47.3 124.6 126.7 438.6
08/05 02:00 23.8 56 12.05 14.5 11 24 1011.9 0 26.4 28.3 47.9 126.3 128.7 445.9
08/05 01:50 23.9 56 12.11 14.6 13 17 1012 0 26.5 28.4 48.1 126.8 129.4 448.1
08/05 01:40 24 55 11.97 14.6 9 17 1012.1 0 26.2 28.1 47.5 125.2 127.4 441.2
08/05 01:30 24.2 56 12.32 14.9 13 24 1012.3 0 26.9 28.6 48.8 128.5 131.6 456.0
08/05 01:20 24.1 56 12.25 15 11 15 1012.3 0 26.8 28.6 48.6 128.0 130.9 453.4
08/05 01:10 24.2 56 12.32 15.1 11 15 1012.3 0 26.9 28.6 48.8 128.5 131.6 456.0
08/05 01:00 24.4 55 12.24 14.8 13 20 1012.3 0 26.7 28.5 48.3 127.4 130.2 451.2
08/05 00:50 24.4 57 12.68 15.3 11 17 1012.4 0 27.6 29.2 50.1 132.0 136.0 471.2
08/05 00:40 24.4 58 12.91 15.6 11 15 1012.4 0 28.1 29.5 51.0 134.5 139.0 481.7
08/05 00:30 24.6 55 12.38 15.2 11 24 1012.5 0 27.0 28.6 48.8 128.5 131.7 456.4
08/05 00:20 24.7 56 12.67 15.3 11 20 1012.6 0 27.6 29.1 49.9 131.4 135.3 469.0
08/05 00:10 24.9 54 12.36 15.2 9 15 1012.6 0 26.9 28.5 48.5 127.9 131.0 453.8
08/05 00:00 25.3 51 11.94 14.7 13 26 1012.7 0 26.0 27.7 46.6 122.9 125.0 432.9
07/05 23:50 25.4 51 12.01 14.5 11 19 1012.8 0 26.2 27.8 46.9 123.5 125.7 435.5
07/05 23:40 25.4 51 12.01 14.5 11 15 1012.8 0 26.2 27.8 46.9 123.5 125.7 435.5
07/05 23:30 25.6 51 12.14 14.7 11 24 1012.8 0 26.4 27.9 47.2 124.5 127.0 440.2
07/05 23:20 25.7 52 12.45 15.1 13 20 1012.8 0 27.1 28.4 48.4 127.5 130.8 453.3
07/05 23:10 25.6 51 12.14 14.7 11 19 1012.8 0 26.4 27.9 47.2 124.5 127.0 440.2
07/05 23:00 25.9 50 12.11 14.7 9 20 1012.9 0 26.3 27.8 47.0 123.7 126.2 437.2
07/05 22:50 26 52 12.66 15.6 7 17 1012.9 0 27.5 28.6 49.0 129.2 133.0 461.0
07/05 22:40 26.1 55 13.47 16.6 9 17 1012.9 0 29.2 29.9 52.2 137.6 143.3 496.9
07/05 22:30 25.9 55 13.32 16.2 9 15 1012.9 0 28.9 29.7 51.7 136.3 141.7 491.4
07/05 22:20 26 55 13.39 16.5 9 15 1012.9 0 29.0 29.8 51.9 136.9 142.4 493.9
07/05 22:10 25.9 54 13.07 16.1 11 17 1012.9 0 28.4 29.3 50.7 133.7 138.4 480.0
07/05 22:00 26.1 55 13.47 16.6 9 19 1012.9 0 29.2 29.9 52.2 137.6 143.3 496.9
07/05 21:50 26.4 56 13.94 16.9 11 15 1013 0 30.1 30.5 53.8 142.1 148.9 516.6
07/05 21:40 26.3 58 14.36 17.6 7 9 1013 0 31.0 31.3 55.6 146.8 154.7 536.7
07/05 21:30 25.7 56 13.41 16.3 6 9 1013 0 29.1 29.9 52.2 137.7 143.2 496.8
07/05 21:20 25.8 53 12.76 15.7 6 6 1012.9 0 27.7 28.8 49.5 130.6 134.6 466.6
07/05 21:10 25.4 59 13.89 16.8 6 7 1012.8 0 30.1 30.8 54.3 143.3 150.1 520.8
07/05 21:00 25.4 57 13.42 16.5 6 9 1012.7 0 29.1 30.0 52.4 138.2 143.9 499.0
07/05 20:50 24 65 14.14 17.2 7 9 1012.6 0 30.7 31.7 56.3 148.7 156.3 542.1
07/05 20:40 23.8 63 13.55 16.5 6 7 1012.7 0 29.5 30.8 54.0 142.5 148.7 515.4
07/05 20:30 24.5 61 13.65 16.5 6 9 1012.6 0 29.7 30.7 53.9 142.3 148.6 515.5
07/05 20:20 24.3 60 13.28 16 7 9 1012.4 0 28.9 30.2 52.6 138.6 144.1 499.4
07/05 20:10 23.4 70 14.72 17.6 6 7 1012.3 0 32.0 32.9 59.2 156.4 165.6 574.4
07/05 20:00 23.3 73 15.26 18.2 4 6 1012.2 0 33.2 33.9 61.6 162.8 173.4 601.8
07/05 19:50 23.3 71 14.84 17.7 4 4 1012.1 0 32.3 33.2 59.8 157.9 167.5 580.9
07/05 19:40 23.4 68 14.3 17.3 4 4 1012 0 31.1 32.2 57.4 151.5 159.7 553.8
07/05 19:30 23.8 67 14.41 17.3 2 2 1012 0 31.3 32.2 57.6 152.0 160.4 556.2

Last Refresh: 08-May-2026 12:08:52

Bureau of Meteorology